createdAt,value
2022-08-23T00:01:36.241Z,2.87
2022-08-23T00:04:07.857Z,3.10
2022-08-23T00:06:36.924Z,3.00
2022-08-23T00:09:06.410Z,3.33
2022-08-23T00:11:38.059Z,2.80
2022-08-23T00:14:11.854Z,2.93
2022-08-23T00:16:41.787Z,2.63
2022-08-23T00:19:13.211Z,3.00
2022-08-23T00:21:42.894Z,2.47
2022-08-23T00:24:12.411Z,2.77
2022-08-23T00:26:52.941Z,2.50
2022-08-23T00:29:23.576Z,3.10
2022-08-23T00:31:53.740Z,2.53
2022-08-23T00:34:22.802Z,3.03
2022-08-23T00:36:51.746Z,2.80
2022-08-23T00:39:21.703Z,2.83
2022-08-23T00:41:51.233Z,3.10
2022-08-23T00:44:42.942Z,2.90
2022-08-23T00:47:32.663Z,2.73
2022-08-23T00:50:23.598Z,2.90
2022-08-23T00:52:59.823Z,3.00
2022-08-23T00:55:29.014Z,2.87
2022-08-23T00:57:59.038Z,3.30
2022-08-23T01:00:30.377Z,2.67
2022-08-23T01:02:59.919Z,3.07
2022-08-23T01:05:33.064Z,2.63
2022-08-23T01:08:02.344Z,2.70
2022-08-23T01:10:34.758Z,2.20
2022-08-23T01:13:08.657Z,2.60
2022-08-23T01:15:42.105Z,2.80
2022-08-23T01:18:13.642Z,3.07
2022-08-23T01:20:45.607Z,2.90
2022-08-23T01:23:27.554Z,2.53
2022-08-23T01:25:56.551Z,2.97
2022-08-23T01:28:25.551Z,2.47
2022-08-23T01:30:54.281Z,3.10
2022-08-23T01:33:23.150Z,2.77
2022-08-23T01:38:49.093Z,2.90
2022-08-23T01:41:18.271Z,2.67
2022-08-23T01:43:47.339Z,3.07
2022-08-23T01:46:18.840Z,3.10
2022-08-23T01:48:49.649Z,2.63
2022-08-23T01:51:20.093Z,2.70
2022-08-23T01:53:50.326Z,2.80
2022-08-23T01:56:38.084Z,2.53
2022-08-23T01:59:08.481Z,3.40
2022-08-23T02:01:38.044Z,3.20
2022-08-23T02:04:07.476Z,3.27
2022-08-23T02:06:36.352Z,2.90
2022-08-23T02:09:17.312Z,3.07
2022-08-23T02:11:47.298Z,2.93
2022-08-23T02:14:18.602Z,3.50
2022-08-23T02:16:53.693Z,3.57
2022-08-23T02:19:32.123Z,3.47
2022-08-23T02:22:01.095Z,3.37
2022-08-23T02:24:32.107Z,3.23
2022-08-23T02:27:02.887Z,2.70
2022-08-23T02:29:31.723Z,3.37
2022-08-23T02:32:02.365Z,3.10
2022-08-23T02:34:32.072Z,2.90
2022-08-23T02:37:00.856Z,2.70
2022-08-23T02:39:31.500Z,3.00
2022-08-23T02:42:00.949Z,2.90
2022-08-23T02:44:34.573Z,3.20
2022-08-23T02:47:03.413Z,2.70
2022-08-23T02:49:34.155Z,2.73
2022-08-23T02:52:03.008Z,2.83
2022-08-23T02:54:33.849Z,2.93
2022-08-23T02:57:02.700Z,2.50
2022-08-23T02:59:31.610Z,2.77
2022-08-23T03:02:00.574Z,3.07
2022-08-23T03:04:29.668Z,4.70
2022-08-23T03:06:58.490Z,4.00
2022-08-23T03:09:27.486Z,3.50
2022-08-23T03:11:58.018Z,2.87
2022-08-23T03:14:27.889Z,3.87
2022-08-23T03:16:58.311Z,3.40
2022-08-23T03:19:27.650Z,4.03
2022-08-23T03:21:56.809Z,3.80
2022-08-23T03:24:25.717Z,3.70
2022-08-23T03:26:54.486Z,3.97
2022-08-23T03:29:25.292Z,3.73
2022-08-23T03:31:54.049Z,3.60
2022-08-23T03:34:22.889Z,3.00
2022-08-23T03:36:51.666Z,3.10
2022-08-23T03:39:20.425Z,3.80
2022-08-23T03:41:49.597Z,3.27
2022-08-23T03:44:18.442Z,3.70
2022-08-23T03:46:48.614Z,3.80
2022-08-23T03:49:17.326Z,3.37
2022-08-23T03:51:46.113Z,3.30
2022-08-23T03:54:14.899Z,3.23
2022-08-23T03:56:52.415Z,3.63
2022-08-23T03:59:21.493Z,3.47
2022-08-23T04:01:51.779Z,3.00
2022-08-23T04:04:20.891Z,3.73
2022-08-23T04:06:49.752Z,3.20
2022-08-23T04:09:18.940Z,2.90
2022-08-23T04:11:48.562Z,3.40
2022-08-23T04:14:17.602Z,3.27
2022-08-23T04:16:46.729Z,3.33
2022-08-23T04:19:17.479Z,3.80
2022-08-23T04:21:50.214Z,3.50
2022-08-23T04:24:19.702Z,3.30
2022-08-23T04:26:49.654Z,4.00
2022-08-23T04:29:31.462Z,3.43
2022-08-23T04:32:05.589Z,3.77
2022-08-23T04:34:39.918Z,3.80
2022-08-23T04:37:09.193Z,4.30
2022-08-23T04:39:54.068Z,3.50
2022-08-23T04:42:23.295Z,3.63
2022-08-23T04:44:52.139Z,3.33
2022-08-23T04:47:21.527Z,3.83
2022-08-23T04:49:51.600Z,3.47
2022-08-23T04:52:20.347Z,3.30
2022-08-23T04:54:49.068Z,3.37
2022-08-23T04:57:17.947Z,3.90
2022-08-23T04:59:46.614Z,3.80
2022-08-23T05:02:15.593Z,3.88
2022-08-23T05:04:44.866Z,3.70
2022-08-23T05:07:15.560Z,3.83
2022-08-23T05:09:44.319Z,4.40
2022-08-23T05:12:13.025Z,3.77
2022-08-23T05:14:41.749Z,3.80
2022-08-23T05:17:16.507Z,3.57
2022-08-23T05:19:47.072Z,3.77
2022-08-23T05:22:17.552Z,3.93
2022-08-23T05:24:46.379Z,3.87
2022-08-23T05:27:15.638Z,3.80
2022-08-23T05:29:44.412Z,3.87
2022-08-23T05:32:13.255Z,4.17
2022-08-23T05:34:42.140Z,3.70
2022-08-23T05:37:10.872Z,3.60
2022-08-23T05:39:41.096Z,3.87
2022-08-23T05:42:11.993Z,4.00
2022-08-23T05:44:40.891Z,3.80
2022-08-23T05:47:12.045Z,4.13
2022-08-23T05:49:41.116Z,4.20
2022-08-23T05:52:14.831Z,4.30
2022-08-23T05:54:45.041Z,5.17
2022-08-23T05:57:13.937Z,4.23
2022-08-23T05:59:43.144Z,4.47
2022-08-23T06:02:12.158Z,4.20
2022-08-23T06:04:41.398Z,4.00
2022-08-23T06:07:11.199Z,3.80
2022-08-23T06:09:40.104Z,3.90
2022-08-23T06:12:10.410Z,3.87
2022-08-23T06:14:39.532Z,3.73
2022-08-23T06:17:08.283Z,3.70
2022-08-23T06:19:37.194Z,4.20
2022-08-23T06:22:06.133Z,4.10
2022-08-23T06:24:35.156Z,3.97
2022-08-23T06:27:04.323Z,4.03
2022-08-23T06:29:34.616Z,4.03
2022-08-23T06:32:03.651Z,3.80
2022-08-23T06:34:33.980Z,4.17
2022-08-23T06:37:04.808Z,4.43
2022-08-23T06:39:37.370Z,4.20
2022-08-23T06:42:34.556Z,4.70
2022-08-23T06:44:58.399Z,3.80
2022-08-23T06:47:27.247Z,4.53
2022-08-23T06:49:59.005Z,3.67
2022-08-23T06:52:31.446Z,3.80
2022-08-23T06:55:02.182Z,3.50
2022-08-23T06:57:32.413Z,4.30
2022-08-23T07:00:02.847Z,3.97
2022-08-23T07:02:31.670Z,4.43
2022-08-23T07:05:00.469Z,3.57
2022-08-23T07:07:41.228Z,4.50
2022-08-23T07:10:12.957Z,3.77
2022-08-23T07:12:43.003Z,3.63
2022-08-23T07:15:13.623Z,4.30
2022-08-23T07:17:42.373Z,4.10
2022-08-23T07:20:11.246Z,4.83
2022-08-23T07:22:40.309Z,3.50
2022-08-23T07:25:09.240Z,4.17
2022-08-23T07:27:39.505Z,4.07
2022-08-23T07:30:16.809Z,3.60
2022-08-23T07:32:46.307Z,2.90
2022-08-23T07:35:15.046Z,3.83
2022-08-23T07:37:43.959Z,3.43
2022-08-23T07:40:20.396Z,3.30
2022-08-23T07:42:49.787Z,3.67
2022-08-23T07:45:23.017Z,3.17
2022-08-23T07:47:52.795Z,3.23
2022-08-23T07:50:22.532Z,3.17
2022-08-23T07:52:51.302Z,2.93
2022-08-23T07:55:20.140Z,3.20
2022-08-23T07:57:49.070Z,2.87
2022-08-23T08:00:19.441Z,2.50
2022-08-23T08:02:48.271Z,3.20
2022-08-23T08:05:21.413Z,3.00
2022-08-23T08:07:50.617Z,2.80
2022-08-23T08:10:19.427Z,3.73
2022-08-23T08:12:48.571Z,2.70
2022-08-23T08:15:19.099Z,4.00
2022-08-23T08:17:48.414Z,3.43
2022-08-23T08:20:17.318Z,2.80
2022-08-23T08:22:49.927Z,3.00
2022-08-23T08:25:25.552Z,2.80
2022-08-23T08:27:54.770Z,2.83
2022-08-23T08:30:26.189Z,2.50
2022-08-23T08:32:55.163Z,2.57
2022-08-23T08:35:24.209Z,2.77
2022-08-23T08:37:53.063Z,2.73
2022-08-23T08:40:28.542Z,2.30
2022-08-23T08:43:20.049Z,2.20
2022-08-23T08:46:01.361Z,2.27
2022-08-23T08:48:31.507Z,2.37
2022-08-23T08:51:04.818Z,2.50
2022-08-23T08:53:36.330Z,2.20
2022-08-23T08:56:09.375Z,2.00
2022-08-23T08:58:43.453Z,2.30
2022-08-23T09:01:13.869Z,2.70
2022-08-23T09:03:43.110Z,2.50
2022-08-23T09:06:18.364Z,2.23
2022-08-23T09:08:56.763Z,2.47
2022-08-23T09:11:38.977Z,2.40
2022-08-23T09:14:18.034Z,2.13
2022-08-23T09:16:52.880Z,2.27
2022-08-23T09:19:25.136Z,2.20
2022-08-23T09:21:58.654Z,1.70
2022-08-23T09:24:27.926Z,1.97
2022-08-23T09:26:56.994Z,2.60
2022-08-23T09:29:27.564Z,2.60
2022-08-23T09:32:04.911Z,2.20
2022-08-23T09:34:43.265Z,1.90
2022-08-23T09:37:15.084Z,1.80
2022-08-23T09:39:47.276Z,2.63
2022-08-23T09:42:31.113Z,1.83
2022-08-23T09:45:01.253Z,2.00
2022-08-23T09:47:38.396Z,2.03
2022-08-23T09:50:20.413Z,1.70
2022-08-23T09:52:50.220Z,1.90
2022-08-23T09:55:31.805Z,1.57
2022-08-23T09:58:01.563Z,1.50
2022-08-23T10:00:42.105Z,1.40
2022-08-23T10:03:49.583Z,2.10
2022-08-23T10:06:42.039Z,1.43
2022-08-23T10:09:34.570Z,1.43
2022-08-23T10:12:03.674Z,1.50
2022-08-23T10:14:35.887Z,1.70
2022-08-23T10:17:12.207Z,1.67
2022-08-23T10:19:47.999Z,1.67
2022-08-23T10:22:30.173Z,1.53
2022-08-23T10:25:05.726Z,1.50
2022-08-23T10:27:56.472Z,1.43
2022-08-23T10:30:30.283Z,1.57
2022-08-23T10:33:07.158Z,2.07
2022-08-23T10:35:41.174Z,1.57
2022-08-23T10:38:24.699Z,1.40
2022-08-23T10:40:59.822Z,1.67
2022-08-23T10:43:37.232Z,1.50
2022-08-23T10:46:08.942Z,1.70
2022-08-23T10:48:40.761Z,1.60
2022-08-23T10:51:13.231Z,1.50
2022-08-23T10:53:46.464Z,1.57
2022-08-23T10:56:19.265Z,1.20
2022-08-23T10:58:51.965Z,1.47
2022-08-23T11:01:23.562Z,1.40
2022-08-23T11:04:02.567Z,1.37
2022-08-23T11:06:45.778Z,1.50
2022-08-23T11:10:05.243Z,1.40
2022-08-23T11:12:36.127Z,1.63
2022-08-23T11:15:22.043Z,1.60
2022-08-23T11:17:58.467Z,1.70
2022-08-23T11:21:00.667Z,1.50
2022-08-23T11:23:54.208Z,1.80
2022-08-23T11:27:06.956Z,1.60
2022-08-23T11:29:38.521Z,1.70
2022-08-23T11:32:32.561Z,1.60
2022-08-23T11:35:10.225Z,1.83
2022-08-23T11:38:07.256Z,1.80
2022-08-23T11:40:45.484Z,1.53
2022-08-23T11:43:22.773Z,1.77
2022-08-23T11:45:51.679Z,1.80
2022-08-23T11:48:24.262Z,1.47
2022-08-23T11:51:19.660Z,1.60
2022-08-23T11:54:04.128Z,1.60
2022-08-23T11:57:01.053Z,1.83
2022-08-23T11:59:43.223Z,1.77
2022-08-23T12:02:33.781Z,1.40
2022-08-23T12:05:07.387Z,1.80
2022-08-23T12:07:48.126Z,1.50
2022-08-23T12:10:18.452Z,1.40
2022-08-23T12:13:28.274Z,1.50
2022-08-23T12:16:16.236Z,1.30
2022-08-23T12:18:54.003Z,1.70
2022-08-23T12:21:25.185Z,1.77
2022-08-23T12:23:56.558Z,1.60
2022-08-23T12:26:35.275Z,1.67
2022-08-23T12:29:09.189Z,1.60
2022-08-23T12:31:44.902Z,1.80
2022-08-23T12:34:19.553Z,1.47
2022-08-23T12:36:55.379Z,1.43
2022-08-23T12:39:28.939Z,1.60
2022-08-23T12:42:05.952Z,1.50
2022-08-23T12:44:37.209Z,1.50
2022-08-23T12:47:16.600Z,1.30
2022-08-23T12:49:56.590Z,1.50
2022-08-23T12:52:27.398Z,1.80
2022-08-23T12:54:57.927Z,1.50
2022-08-23T12:57:37.593Z,1.30
2022-08-23T13:00:19.928Z,2.00
2022-08-23T13:02:54.546Z,1.60
2022-08-23T13:05:32.697Z,1.50
2022-08-23T13:08:03.046Z,1.67
2022-08-23T13:10:32.581Z,1.37
2022-08-23T13:13:01.903Z,1.80
2022-08-23T13:15:48.012Z,1.40
2022-08-23T13:18:32.191Z,1.50
2022-08-23T13:21:20.897Z,1.63
2022-08-23T13:23:50.314Z,1.50
2022-08-23T13:26:38.190Z,1.50
2022-08-23T13:29:09.916Z,1.67
2022-08-23T13:32:02.660Z,1.87
2022-08-23T13:34:48.661Z,1.50
2022-08-23T13:37:22.002Z,1.50
2022-08-23T13:39:54.315Z,1.50
2022-08-23T13:42:28.292Z,1.70
2022-08-23T13:44:56.997Z,1.70
2022-08-23T13:47:35.862Z,1.70
2022-08-23T13:50:11.637Z,1.50
2022-08-23T13:52:56.763Z,2.00
2022-08-23T13:55:30.459Z,1.90
2022-08-23T13:57:59.968Z,1.70
2022-08-23T14:00:28.748Z,1.70
2022-08-23T14:02:58.942Z,1.80
2022-08-23T14:05:27.871Z,1.60
2022-08-23T14:08:01.848Z,1.70
2022-08-23T14:10:30.629Z,1.93
2022-08-23T14:13:00.709Z,1.53
2022-08-23T14:18:20.381Z,1.50
2022-08-23T14:20:51.265Z,1.50
2022-08-23T14:23:20.488Z,1.73
2022-08-23T14:25:50.050Z,1.57
2022-08-23T14:28:18.952Z,1.80
2022-08-23T14:30:48.042Z,1.73
2022-08-23T14:33:16.801Z,1.70
2022-08-23T14:35:46.975Z,1.37
2022-08-23T14:38:15.924Z,2.00
2022-08-23T14:40:48.491Z,1.67
2022-08-23T14:43:17.261Z,1.50
2022-08-23T14:45:46.139Z,1.70
2022-08-23T14:48:15.617Z,1.77
2022-08-23T14:50:46.837Z,1.80
2022-08-23T14:53:17.564Z,1.40
2022-08-23T14:55:46.350Z,1.90
2022-08-23T14:58:15.177Z,1.90
2022-08-23T15:00:45.019Z,1.70
2022-08-23T15:03:16.550Z,1.93
2022-08-23T15:05:47.000Z,1.77
2022-08-23T15:08:15.749Z,1.63
2022-08-23T15:12:55.329Z,2.03
2022-08-23T15:13:37.400Z,1.83
2022-08-23T15:16:23.018Z,1.93
2022-08-23T15:18:53.412Z,1.67
2022-08-23T15:21:23.693Z,1.70
2022-08-23T15:23:52.522Z,2.10
2022-08-23T15:26:24.211Z,1.50
2022-08-23T15:28:53.567Z,2.00
2022-08-23T15:31:22.480Z,1.90
2022-08-23T15:33:51.338Z,1.80
2022-08-23T15:36:20.607Z,1.70
2022-08-23T15:38:51.445Z,1.60
2022-08-23T15:41:21.658Z,1.70
2022-08-23T15:43:50.497Z,2.07
2022-08-23T15:46:23.228Z,1.83
2022-08-23T15:48:55.091Z,1.90
2022-08-23T15:51:23.874Z,1.57
2022-08-23T15:53:54.235Z,1.73
2022-08-23T15:56:30.261Z,1.77
2022-08-23T15:58:59.671Z,1.60
2022-08-23T16:01:33.604Z,1.90
2022-08-23T16:04:05.375Z,1.53
2022-08-23T16:06:36.602Z,1.70
2022-08-23T16:09:09.167Z,1.83
2022-08-23T16:11:41.332Z,1.60
2022-08-23T16:14:10.051Z,1.60
2022-08-23T16:16:41.167Z,1.90
2022-08-23T16:19:10.476Z,2.00
2022-08-23T16:21:39.992Z,1.90
2022-08-23T16:24:10.410Z,1.83
2022-08-23T16:26:41.897Z,1.67
2022-08-23T16:29:13.341Z,2.10
2022-08-23T16:31:43.101Z,2.17
2022-08-23T16:34:16.692Z,2.00
2022-08-23T16:36:47.387Z,1.93
2022-08-23T16:39:18.029Z,1.73
2022-08-23T16:41:46.842Z,1.80
2022-08-23T16:44:16.717Z,1.80
2022-08-23T16:46:47.194Z,1.83
2022-08-23T16:49:18.063Z,1.70
2022-08-23T16:51:49.176Z,1.70
2022-08-23T16:54:19.757Z,1.80
2022-08-23T16:56:49.358Z,1.60
2022-08-23T16:59:18.220Z,1.90
2022-08-23T17:01:48.852Z,1.63
2022-08-23T17:04:18.455Z,1.60
2022-08-23T17:06:47.960Z,1.80
2022-08-23T17:09:16.825Z,1.90
2022-08-23T17:11:47.249Z,2.17
2022-08-23T17:14:16.108Z,1.50
2022-08-23T17:16:45.068Z,2.07
2022-08-23T17:19:14.767Z,2.17
2022-08-23T17:21:44.821Z,1.63
2022-08-23T17:24:13.651Z,2.10
2022-08-23T17:26:42.673Z,1.90
2022-08-23T17:29:12.888Z,2.23
2022-08-23T17:31:41.720Z,2.20
2022-08-23T17:34:10.477Z,1.87
2022-08-23T17:36:42.885Z,1.77
2022-08-23T17:39:18.757Z,2.00
2022-08-23T17:41:47.913Z,2.10
2022-08-23T17:44:18.219Z,2.90
2022-08-23T17:46:47.871Z,3.23
2022-08-23T17:49:18.451Z,2.90
2022-08-23T17:51:47.515Z,2.00
2022-08-23T17:54:18.645Z,2.93
2022-08-23T17:56:50.466Z,2.80
2022-08-23T17:59:21.514Z,2.80
2022-08-23T18:01:52.056Z,2.67
2022-08-23T18:04:20.874Z,2.77
2022-08-23T18:06:49.653Z,2.40
2022-08-23T18:09:18.678Z,2.67
2022-08-23T18:11:48.001Z,2.77
2022-08-23T18:14:17.215Z,2.43
2022-08-23T18:16:49.011Z,2.90
2022-08-23T18:19:18.006Z,2.57
2022-08-23T18:21:47.013Z,3.50
2022-08-23T18:24:16.341Z,2.60
2022-08-23T18:27:03.359Z,2.90
2022-08-23T18:29:33.664Z,3.50
2022-08-23T18:32:05.754Z,4.37
2022-08-23T18:34:35.549Z,3.40
2022-08-23T18:37:05.104Z,2.73
2022-08-23T18:39:34.925Z,2.90
2022-08-23T18:42:05.847Z,3.80
2022-08-23T18:44:34.671Z,2.80
2022-08-23T18:47:05.656Z,3.20
2022-08-23T18:49:35.695Z,3.05
2022-08-23T18:52:05.276Z,3.13
2022-08-23T18:54:34.323Z,3.57
2022-08-23T18:57:03.634Z,3.10
2022-08-23T18:59:33.201Z,3.50
2022-08-23T19:02:02.537Z,3.13
2022-08-23T19:04:32.888Z,3.60
2022-08-23T19:07:01.792Z,3.10
2022-08-23T19:09:30.930Z,3.87
2022-08-23T19:12:00.806Z,2.93
2022-08-23T19:14:29.884Z,2.87
2022-08-23T19:17:00.093Z,3.40
2022-08-23T19:19:29.501Z,3.17
2022-08-23T19:21:59.653Z,2.80
2022-08-23T19:24:28.688Z,3.20
2022-08-23T19:27:08.935Z,3.03
2022-08-23T19:29:37.753Z,3.37
2022-08-23T19:32:06.833Z,3.03
2022-08-23T19:34:35.753Z,3.07
2022-08-23T19:37:06.170Z,3.03
2022-08-23T19:39:41.619Z,2.80
2022-08-23T19:42:11.876Z,3.23
2022-08-23T19:44:41.031Z,3.10
2022-08-23T19:47:13.441Z,2.80
2022-08-23T19:49:49.416Z,2.33
2022-08-23T19:52:19.544Z,3.67
2022-08-23T19:54:49.074Z,3.40
2022-08-23T19:57:18.368Z,3.10
2022-08-23T19:59:47.208Z,2.87
2022-08-23T20:02:20.398Z,3.30
2022-08-23T20:04:49.637Z,2.87
2022-08-23T20:07:19.755Z,3.27
2022-08-23T20:09:48.883Z,2.83
2022-08-23T20:12:19.096Z,3.57
2022-08-23T20:14:49.500Z,3.60
2022-08-23T20:17:18.462Z,2.67
2022-08-23T20:19:47.252Z,3.50
2022-08-23T20:22:30.489Z,3.10
2022-08-23T20:25:06.592Z,3.00
2022-08-23T20:27:37.005Z,3.40
2022-08-23T20:30:06.973Z,3.40
2022-08-23T20:32:36.017Z,3.03
2022-08-23T20:35:08.111Z,2.53
2022-08-23T20:37:36.910Z,3.73
2022-08-23T20:40:10.100Z,3.00
2022-08-23T20:42:39.172Z,2.70
2022-08-23T20:45:09.298Z,3.20
2022-08-23T20:47:40.205Z,2.90
2022-08-23T20:50:09.954Z,2.70
2022-08-23T20:52:38.691Z,3.37
2022-08-23T20:55:10.983Z,2.97
2022-08-23T20:57:40.021Z,3.50
2022-08-23T21:00:09.885Z,2.90
2022-08-23T21:02:38.684Z,2.67
2022-08-23T21:05:07.929Z,3.40
2022-08-23T21:07:36.948Z,3.43
2022-08-23T21:10:06.510Z,2.90
2022-08-23T21:12:37.083Z,3.70
2022-08-23T21:15:10.775Z,3.03
2022-08-23T21:17:41.156Z,3.13
2022-08-23T21:20:10.975Z,3.17
2022-08-23T21:22:39.717Z,3.80
2022-08-23T21:25:09.281Z,3.30
2022-08-23T21:27:39.408Z,3.60
2022-08-23T21:30:10.021Z,3.17
2022-08-23T21:32:38.804Z,3.80
2022-08-23T21:35:08.488Z,3.77
2022-08-23T21:37:37.477Z,3.20
2022-08-23T21:40:10.420Z,3.53
2022-08-23T21:42:40.692Z,3.50
2022-08-23T21:45:10.520Z,3.37
2022-08-23T21:47:40.261Z,3.17
2022-08-23T21:50:09.696Z,3.40
2022-08-23T21:52:38.581Z,3.30
2022-08-23T21:55:08.564Z,3.60
2022-08-23T21:57:37.413Z,3.73
2022-08-23T22:00:13.232Z,3.37
2022-08-23T22:02:42.566Z,3.23
2022-08-23T22:05:14.369Z,3.00
2022-08-23T22:07:43.044Z,3.83
2022-08-23T22:10:22.280Z,3.77
2022-08-23T22:12:53.007Z,3.20
2022-08-23T22:15:25.770Z,3.33
2022-08-23T22:17:54.565Z,3.47
2022-08-23T22:20:23.247Z,3.57
2022-08-23T22:22:52.157Z,3.10
2022-08-23T22:25:20.855Z,3.40
2022-08-23T22:27:49.600Z,3.27
2022-08-23T22:30:19.298Z,3.47
2022-08-23T22:32:49.816Z,3.43
2022-08-23T22:35:18.972Z,3.40
2022-08-23T22:38:03.973Z,3.30
2022-08-23T22:40:37.420Z,3.07
2022-08-23T22:43:06.173Z,3.30
2022-08-23T22:45:35.209Z,3.10
2022-08-23T22:48:05.573Z,3.50
2022-08-23T22:50:34.272Z,3.63
2022-08-23T22:53:03.046Z,3.30
2022-08-23T22:55:31.824Z,4.03
2022-08-23T22:58:02.087Z,3.77
2022-08-23T23:00:31.081Z,3.20
2022-08-23T23:03:00.185Z,3.40
2022-08-23T23:05:33.687Z,3.67
2022-08-23T23:08:19.980Z,3.60
2022-08-23T23:10:48.942Z,3.50
2022-08-23T23:13:17.695Z,3.43
2022-08-23T23:15:46.607Z,3.43
2022-08-23T23:18:15.345Z,3.87
2022-08-23T23:20:44.922Z,3.70
2022-08-23T23:23:15.659Z,3.60
2022-08-23T23:25:45.914Z,3.17
2022-08-23T23:28:15.714Z,3.43
2022-08-23T23:30:46.074Z,3.43
2022-08-23T23:33:15.231Z,3.80
2022-08-23T23:35:45.918Z,3.40
2022-08-23T23:38:15.168Z,3.30
2022-08-23T23:40:44.528Z,3.53
2022-08-23T23:43:13.581Z,3.90
2022-08-23T23:45:42.904Z,3.77
2022-08-23T23:48:12.636Z,3.93
2022-08-23T23:50:45.024Z,3.83
2022-08-23T23:53:17.155Z,3.60
2022-08-23T23:55:46.450Z,4.03
2022-08-23T23:58:15.194Z,3.73
